Time;durP1;ratioP1;P1;durP2;ratioP2;P2;SDS_P1;SDS_P2;PMS_P1;PMS_P2;Temp;Humidity;BMP_temperature;BMP_pressure;BME280_temperature;BME280_humidity;BME280_pressure;Samples;Min_cycle;Max_cycle;Signal;HPM_P1;HPM_P2
2022/08/06 00:02:29;;;;;;;3.65;0.60;;;;;;;13.88;98.98;101402.91;5187479;28;20022;-74
2022/08/06 00:05:03;;;;;;;3.40;0.90;;;;;;;14.07;97.75;101402.16;5187418;28;20472;-74
2022/08/06 00:07:34;;;;;;;1.23;0.73;;;;;;;13.84;98.63;101414.41;5193974;28;20021;-73
2022/08/06 00:10:05;;;;;;;4.15;0.85;;;;;;;13.89;98.64;101413.34;5178985;28;20113;-73
2022/08/06 00:12:36;;;;;;;4.60;1.33;;;;;;;13.90;99.10;101419.47;5181152;28;20481;-74
2022/08/06 00:15:07;;;;;;;2.97;0.68;;;;;;;13.64;99.74;101417.75;5192495;28;20030;-74
2022/08/06 00:17:38;;;;;;;3.10;0.70;;;;;;;13.37;100.00;101429.19;5193770;28;20029;-74
2022/08/06 00:20:09;;;;;;;1.60;0.70;;;;;;;13.31;100.00;101425.88;5185961;28;20036;-74
2022/08/06 00:22:39;;;;;;;3.05;0.60;;;;;;;13.08;100.00;101420.53;5186968;28;20091;-74
2022/08/06 00:25:10;;;;;;;4.40;0.80;;;;;;;13.05;100.00;101429.38;5187079;28;20025;-74
2022/08/06 00:27:40;;;;;;;2.83;0.77;;;;;;;13.17;100.00;101433.34;5195338;28;20112;-74
2022/08/06 00:30:11;;;;;;;2.72;0.60;;;;;;;13.37;100.00;101433.59;5189620;28;20365;-73
2022/08/06 00:32:41;;;;;;;2.42;0.70;;;;;;;13.51;100.00;101433.97;5190509;28;20110;-74
2022/08/06 00:35:11;;;;;;;3.03;0.70;;;;;;;13.67;100.00;101436.03;5192709;28;20033;-73
2022/08/06 00:37:42;;;;;;;1.85;0.60;;;;;;;13.54;100.00;101439.13;5178879;28;20454;-74
2022/08/06 00:40:18;;;;;;;2.40;0.52;;;;;;;13.30;98.94;101446.06;5199462;28;20029;-74
2022/08/06 00:42:50;;;;;;;3.63;0.70;;;;;;;13.53;99.23;101442.63;5176084;28;20049;-74
2022/08/06 00:45:21;;;;;;;2.28;0.75;;;;;;;13.42;100.00;101450.03;5182443;28;20110;-74
2022/08/06 00:47:54;;;;;;;1.85;0.63;;;;;;;13.57;100.00;101450.38;5187674;28;20042;-73
2022/08/06 00:50:25;;;;;;;1.88;0.60;;;;;;;13.51;98.61;101453.22;5189467;28;20067;-74
2022/08/06 00:52:55;;;;;;;1.20;0.40;;;;;;;13.51;99.77;101452.34;5181620;28;20486;-74
2022/08/06 00:55:26;;;;;;;2.40;0.60;;;;;;;13.74;97.38;101455.06;5195118;28;20057;-72
2022/08/06 00:57:56;;;;;;;1.35;0.50;;;;;;;13.62;96.33;101456.34;5194690;28;20073;-74
2022/08/06 01:00:27;;;;;;;1.30;0.55;;;;;;;13.51;97.49;101449.72;5200551;28;20044;-74
2022/08/06 01:02:57;;;;;;;1.25;0.60;;;;;;;13.57;97.61;101458.25;5186383;28;20043;-74
2022/08/06 01:05:27;;;;;;;2.78;0.75;;;;;;;13.53;98.27;101453.13;5188714;28;20025;-73
2022/08/06 01:07:58;;;;;;;1.90;0.60;;;;;;;13.41;98.87;101464.91;5192639;28;20550;-74
2022/08/06 01:10:28;;;;;;;1.45;0.60;;;;;;;13.04;100.00;101455.69;5185035;28;20513;-73
2022/08/06 01:12:58;;;;;;;2.10;0.75;;;;;;;13.00;100.00;101464.53;5197072;28;20022;-74
2022/08/06 01:15:29;;;;;;;2.92;0.70;;;;;;;12.73;100.00;101465.34;5196292;28;20029;-74
2022/08/06 01:18:31;;;;;;;4.72;1.00;;;;;;;12.57;100.00;101464.09;5192198;28;20029;-74
2022/08/06 01:21:22;;;;;;;2.10;0.70;;;;;;;12.56;100.00;101458.88;5192030;28;20045;-74
2022/08/06 01:24:15;;;;;;;0.80;0.50;;;;;;;12.80;100.00;101463.41;5183874;28;20030;-74
2022/08/06 01:26:51;;;;;;;1.80;0.70;;;;;;;12.87;100.00;101465.81;5172818;28;20041;-74
2022/08/06 01:29:26;;;;;;;1.27;0.60;;;;;;;13.05;100.00;101463.47;5193406;28;20511;-74
2022/08/06 01:32:04;;;;;;;1.92;0.70;;;;;;;12.56;100.00;101472.88;5197163;28;20037;-73
2022/08/06 01:34:46;;;;;;;1.95;0.60;;;;;;;12.72;100.00;101475.88;5196435;28;20034;-75
2022/08/06 01:37:22;;;;;;;3.17;0.70;;;;;;;12.54;100.00;101479.91;5195933;28;20395;-74
2022/08/06 01:39:58;;;;;;;4.85;0.80;;;;;;;12.29;100.00;101476.25;5188828;28;20029;-74
2022/08/06 01:42:30;;;;;;;1.90;0.50;;;;;;;12.37;100.00;101478.66;5174402;28;20503;-74
2022/08/06 01:45:04;;;;;;;2.30;0.65;;;;;;;12.48;100.00;101484.47;5189826;28;20408;-74
2022/08/06 01:47:37;;;;;;;2.55;0.68;;;;;;;12.10;100.00;101476.84;5192529;28;20017;-73
2022/08/06 01:50:09;;;;;;;5.28;0.63;;;;;;;11.72;100.00;101488.31;5193033;28;20482;-73
2022/08/06 01:52:42;;;;;;;3.55;0.70;;;;;;;11.72;100.00;101495.31;5196036;28;20466;-73
2022/08/06 01:55:15;;;;;;;3.33;0.70;;;;;;;11.83;100.00;101494.16;5187627;28;20026;-73
2022/08/06 01:57:59;;;;;;;2.83;0.57;;;;;;;12.00;100.00;101481.47;5192408;28;20403;-73
2022/08/06 02:00:31;;;;;;;4.05;0.60;;;;;;;11.88;100.00;101481.78;5192509;28;20028;-73
2022/08/06 02:03:09;;;;;;;3.47;0.60;;;;;;;11.98;100.00;101479.78;5195335;28;20541;-74
2022/08/06 02:05:41;;;;;;;2.17;0.70;;;;;;;12.16;100.00;101487.13;5193576;28;20079;-73
2022/08/06 02:08:16;;;;;;;1.13;0.50;;;;;;;11.91;100.00;101489.56;5188351;28;20029;-73
2022/08/06 02:10:50;;;;;;;2.03;0.70;;;;;;;12.24;100.00;101490.41;5191249;28;20033;-74
2022/08/06 02:13:22;;;;;;;3.70;0.63;;;;;;;12.18;100.00;101488.84;5192505;28;20034;-73
2022/08/06 02:15:54;;;;;;;1.85;0.70;;;;;;;12.13;100.00;101500.34;5191505;28;20379;-73
2022/08/06 02:18:26;;;;;;;2.65;0.88;;;;;;;11.80;100.00;101496.81;5191687;28;20017;-74
2022/08/06 02:20:58;;;;;;;1.77;0.70;;;;;;;12.12;100.00;101496.00;5198610;28;20128;-74
2022/08/06 02:23:30;;;;;;;3.00;0.52;;;;;;;11.80;100.00;101494.19;5192115;28;20435;-73
2022/08/06 02:26:02;;;;;;;1.00;0.60;;;;;;;11.96;100.00;101492.06;5189413;28;20125;-74
2022/08/06 02:28:35;;;;;;;2.15;0.60;;;;;;;12.25;100.00;101495.59;5198249;28;20029;-74
2022/08/06 02:31:06;;;;;;;2.05;0.73;;;;;;;12.22;100.00;101502.69;5192507;28;20546;-74
2022/08/06 02:33:36;;;;;;;4.03;1.20;;;;;;;12.42;100.00;101501.25;5182213;28;20061;-73
2022/08/06 02:36:17;;;;;;;3.25;0.70;;;;;;;12.36;100.00;101503.16;5206579;22;20388;-73
2022/08/06 02:39:01;;;;;;;4.68;1.10;;;;;;;12.09;100.00;101507.41;5199706;28;20152;-73
2022/08/06 02:41:48;;;;;;;1.95;0.70;;;;;;;12.29;100.00;101506.88;5201733;28;20033;-71
2022/08/06 02:44:37;;;;;;;1.30;0.65;;;;;;;12.26;100.00;101505.19;5200139;28;20421;-73
2022/08/06 02:47:29;;;;;;;4.10;0.73;;;;;;;12.22;100.00;101508.81;5202922;28;20486;-74
2022/08/06 02:50:02;;;;;;;1.65;0.80;;;;;;;12.03;100.00;101518.06;5199804;28;20116;-74
2022/08/06 02:52:49;;;;;;;3.00;0.68;;;;;;;12.06;100.00;101517.09;5201032;28;20037;-73
2022/08/06 02:55:24;;;;;;;2.22;0.77;;;;;;;12.24;100.00;101512.25;5200269;28;20112;-74
2022/08/06 02:58:11;;;;;;;3.72;0.93;;;;;;;11.75;100.00;101524.06;5202762;28;20034;-73
2022/08/06 03:00:45;;;;;;;1.60;0.80;;;;;;;11.42;100.00;101537.94;5199017;28;20085;-73
2022/08/06 03:03:16;;;;;;;2.75;0.70;;;;;;;11.77;100.00;101530.97;5203032;28;20029;-73
2022/08/06 03:05:49;;;;;;;2.17;0.70;;;;;;;11.89;100.00;101535.03;5202613;28;20483;-73
2022/08/06 03:08:22;;;;;;;4.50;0.90;;;;;;;11.65;100.00;101546.13;5201996;28;20033;-74
2022/08/06 03:10:54;;;;;;;2.55;0.80;;;;;;;11.42;100.00;101554.47;5202901;28;20026;-74
2022/08/06 03:13:26;;;;;;;1.98;0.63;;;;;;;11.32;100.00;101552.13;5202171;28;20041;-74
2022/08/06 03:15:59;;;;;;;2.20;0.80;;;;;;;11.44;100.00;101562.31;5201011;28;20079;-74
2022/08/06 03:18:30;;;;;;;2.03;0.77;;;;;;;11.19;100.00;101564.63;5201905;28;20132;-73
2022/08/06 03:21:02;;;;;;;6.38;1.00;;;;;;;11.24;100.00;101564.53;5201848;28;20435;-73
2022/08/06 03:23:33;;;;;;;2.83;1.02;;;;;;;11.45;100.00;101564.03;5202896;28;20040;-73
2022/08/06 03:26:05;;;;;;;1.88;0.80;;;;;;;11.43;100.00;101566.66;5200497;28;20053;-72
2022/08/06 03:28:36;;;;;;;3.25;0.80;;;;;;;11.32;100.00;101563.47;5201822;28;20025;-73
2022/08/06 03:31:07;;;;;;;2.38;0.75;;;;;;;11.48;100.00;101564.78;5202113;28;20037;-73
2022/08/06 03:33:38;;;;;;;2.53;0.63;;;;;;;11.68;100.00;101562.63;5202458;28;20029;-74
2022/08/06 03:36:10;;;;;;;2.00;0.77;;;;;;;11.88;100.00;101570.84;5201354;28;20028;-73
2022/08/06 03:38:48;;;;;;;1.92;0.88;;;;;;;11.68;100.00;101567.88;5201289;28;20530;-74
2022/08/06 03:41:19;;;;;;;2.53;1.00;;;;;;;11.49;100.00;101573.53;5198486;28;20509;-73
2022/08/06 03:43:49;;;;;;;3.97;1.02;;;;;;;11.09;100.00;101573.56;5201987;28;20025;-73
2022/08/06 03:46:26;;;;;;;4.35;1.00;;;;;;;11.09;100.00;101584.03;5201558;28;20033;-74
2022/08/06 03:49:01;;;;;;;3.58;1.15;;;;;;;11.43;100.00;101585.00;5201085;28;20044;-73
2022/08/06 03:51:35;;;;;;;1.25;0.80;;;;;;;11.56;100.00;101581.25;5201530;28;20029;-73
2022/08/06 03:54:07;;;;;;;2.05;1.05;;;;;;;11.19;100.00;101585.56;5201568;28;20104;-72
2022/08/06 03:56:40;;;;;;;2.20;1.13;;;;;;;11.02;100.00;101599.03;5200823;28;20029;-73
2022/08/06 03:59:13;;;;;;;2.78;0.85;;;;;;;10.77;100.00;101593.44;5201340;28;20079;-73
2022/08/06 04:01:46;;;;;;;1.35;0.90;;;;;;;10.68;100.00;101598.00;5197238;28;20033;-74
2022/08/06 04:04:19;;;;;;;3.10;0.80;;;;;;;10.74;100.00;101603.09;5202061;28;20031;-73
2022/08/06 04:06:50;;;;;;;1.25;0.90;;;;;;;10.87;100.00;101601.97;5201072;28;20095;-73
2022/08/06 04:09:21;;;;;;;2.15;0.80;;;;;;;10.87;100.00;101604.59;5200254;28;20121;-73
2022/08/06 04:11:53;;;;;;;4.05;0.90;;;;;;;10.91;100.00;101607.13;5200925;28;20814;-73
2022/08/06 04:14:24;;;;;;;2.45;0.90;;;;;;;10.80;100.00;101608.19;5200239;28;20041;-74
2022/08/06 04:16:55;;;;;;;3.13;0.80;;;;;;;11.00;100.00;101622.59;5199428;28;20026;-73
2022/08/06 04:19:26;;;;;;;3.47;1.05;;;;;;;11.25;100.00;101614.19;5201015;28;20036;-73
2022/08/06 04:21:56;;;;;;;4.30;1.00;;;;;;;10.95;100.00;101618.34;5199527;28;20091;-74
2022/08/06 04:24:27;;;;;;;1.58;0.82;;;;;;;10.96;100.00;101634.03;5199608;28;20033;-73
2022/08/06 04:27:00;;;;;;;2.03;1.00;;;;;;;10.93;100.00;101630.59;5200609;28;20069;-74
2022/08/06 04:29:32;;;;;;;2.60;1.10;;;;;;;11.07;100.00;101640.75;5200637;28;20108;-74
2022/08/06 04:32:05;;;;;;;3.25;1.00;;;;;;;11.34;100.00;101634.06;5201233;28;20017;-74
2022/08/06 04:34:38;;;;;;;1.83;0.80;;;;;;;11.13;100.00;101640.63;5201257;28;20095;-74
2022/08/06 04:37:10;;;;;;;4.13;0.90;;;;;;;10.98;100.00;101636.59;5200516;28;20032;-74
2022/08/06 04:39:42;;;;;;;2.15;0.90;;;;;;;11.00;100.00;101647.91;5200365;28;20479;-73
2022/08/06 04:42:12;;;;;;;3.85;1.17;;;;;;;11.08;100.00;101658.16;5195587;28;20025;-73
2022/08/06 04:44:43;;;;;;;2.10;0.88;;;;;;;11.10;100.00;101656.38;5200250;28;20029;-72
2022/08/06 04:47:14;;;;;;;3.40;0.90;;;;;;;11.30;100.00;101664.69;5200991;28;20028;-73
2022/08/06 04:49:45;;;;;;;1.98;0.90;;;;;;;11.55;100.00;101663.28;5200844;28;20376;-73
2022/08/06 04:52:26;;;;;;;1.92;0.80;;;;;;;12.47;100.00;101659.28;5200801;28;20034;-74
2022/08/06 04:54:56;;;;;;;1.02;0.73;;;;;;;13.81;98.53;101662.41;5200600;28;20030;-74
2022/08/06 04:57:27;;;;;;;2.15;0.63;;;;;;;14.95;92.04;101661.13;5200563;28;20037;-74
2022/08/06 04:59:57;;;;;;;1.63;0.57;;;;;;;16.20;85.39;101655.31;5200485;28;20079;-74
2022/08/06 05:02:27;;;;;;;2.65;0.68;;;;;;;16.45;83.33;101663.97;5200751;28;20513;-74
2022/08/06 05:04:58;;;;;;;2.92;0.77;;;;;;;18.42;75.96;101650.28;5200106;28;20025;-74
2022/08/06 05:07:31;;;;;;;3.17;0.60;;;;;;;19.88;69.52;101652.88;5199218;28;20548;-74
2022/08/06 05:10:02;;;;;;;3.60;0.60;;;;;;;19.89;72.13;101657.25;5200232;28;20029;-75
2022/08/06 05:12:44;;;;;;;2.13;0.80;;;;;;;21.73;68.56;101653.91;5198457;28;20029;-74
2022/08/06 05:15:31;;;;;;;1.85;0.60;;;;;;;21.81;63.48;101645.44;5198488;28;20032;-74
2022/08/06 05:18:09;;;;;;;3.95;0.60;;;;;;;21.55;69.09;101654.22;5199437;28;20777;-75
2022/08/06 05:20:42;;;;;;;2.10;0.60;;;;;;;22.41;66.01;101662.75;5199316;28;20032;-75
2022/08/06 05:23:16;;;;;;;1.23;0.40;;;;;;;22.88;63.42;101662.03;5194733;28;20021;-75
2022/08/06 05:25:48;;;;;;;4.00;0.70;;;;;;;25.21;59.98;101664.19;5200059;28;20094;-75
2022/08/06 05:28:18;;;;;;;2.08;0.45;;;;;;;24.66;58.58;101664.06;5198476;28;20029;-75
2022/08/06 05:30:52;;;;;;;1.42;0.57;;;;;;;24.54;59.93;101667.66;5198558;28;20034;-75
2022/08/06 05:33:31;;;;;;;1.95;0.50;;;;;;;26.31;54.82;101658.66;5199789;28;20506;-75
2022/08/06 05:36:03;;;;;;;1.75;0.50;;;;;;;25.67;55.72;101665.72;5197844;28;21302;-75
2022/08/06 05:38:35;;;;;;;1.73;0.50;;;;;;;26.96;57.03;101654.78;5198293;28;20675;-75
2022/08/06 05:41:08;;;;;;;2.97;0.60;;;;;;;26.27;54.83;101670.59;5199453;28;20033;-75
2022/08/06 05:43:39;;;;;;;2.97;1.13;;;;;;;27.00;52.85;101666.94;5198745;28;20076;-74
2022/08/06 05:46:13;;;;;;;1.85;0.80;;;;;;;25.86;55.26;101671.31;5199504;28;20087;-75
2022/08/06 05:48:54;;;;;;;2.08;0.60;;;;;;;27.67;55.10;101674.38;5195270;28;20510;-75
2022/08/06 05:51:33;;;;;;;1.40;0.50;;;;;;;27.50;53.92;101676.84;5199074;28;20363;-75
2022/08/06 05:54:22;;;;;;;2.53;0.52;;;;;;;27.03;53.57;101678.28;5198544;28;20032;-75
2022/08/06 05:57:02;;;;;;;2.70;0.60;;;;;;;27.10;52.65;101682.16;5197358;28;20379;-75
2022/08/06 05:59:37;;;;;;;2.40;0.55;;;;;;;27.12;52.40;101682.88;5198715;28;20108;-75
2022/08/06 06:02:09;;;;;;;;;;;;;;;27.51;53.50;101681.22;5198351;28;20572;-73
2022/08/06 06:04:40;;;;;;;3.67;0.80;;;;;;;24.89;58.88;101696.09;5198810;28;20384;-75
2022/08/06 06:07:10;;;;;;;1.88;0.60;;;;;;;26.69;54.32;101688.50;5197973;28;20038;-74
2022/08/06 06:09:42;;;;;;;2.38;0.43;;;;;;;25.93;55.20;101694.00;5198710;28;20470;-75
2022/08/06 06:12:13;;;;;;;2.33;0.68;;;;;;;26.79;54.45;101695.63;5194385;28;20057;-74
2022/08/06 06:14:47;;;;;;;2.47;0.60;;;;;;;25.72;56.55;101694.84;5198712;28;20103;-75
2022/08/06 06:17:35;;;;;;;2.88;0.90;;;;;;;24.19;59.12;101712.19;5201548;28;20053;-74
2022/08/06 06:20:12;;;;;;;2.50;0.60;;;;;;;24.11;60.17;101703.03;5203166;28;20547;-75
2022/08/06 06:23:04;;;;;;;4.20;1.05;;;;;;;25.08;58.79;101696.38;5197536;28;20629;-74
2022/08/06 06:25:46;;;;;;;2.45;0.50;;;;;;;24.62;58.93;101697.34;5202516;28;20025;-75
2022/08/06 06:28:47;;;;;;;2.67;0.50;;;;;;;24.03;59.78;101700.91;5199030;28;20075;-74
2022/08/06 06:31:23;;;;;;;2.30;0.52;;;;;;;23.64;60.86;101702.91;5199236;28;20450;-74
2022/08/06 06:34:09;;;;;;;3.35;0.60;;;;;;;23.32;61.12;101712.34;5201597;28;20659;-75
2022/08/06 06:36:42;;;;;;;5.07;0.70;;;;;;;24.09;61.34;101715.66;5202099;28;20041;-74
2022/08/06 06:39:51;;;;;;;1.92;0.55;;;;;;;23.46;61.36;101705.09;5197638;28;20167;-75
2022/08/06 06:42:31;;;;;;;2.65;0.63;;;;;;;23.73;62.43;101705.78;5200080;28;20097;-74
2022/08/06 06:45:12;;;;;;;1.92;0.63;;;;;;;24.31;61.17;101703.25;5202360;28;21529;-75
2022/08/06 06:47:55;;;;;;;2.05;0.40;;;;;;;25.14;60.16;101698.56;5198266;28;20051;-75
2022/08/06 06:50:29;;;;;;;2.63;0.50;;;;;;;25.42;59.15;101702.63;5202492;28;20071;-75
2022/08/06 06:53:00;;;;;;;4.80;0.77;;;;;;;26.10;56.76;101696.13;5201748;28;20083;-75
2022/08/06 06:55:38;;;;;;;3.85;0.75;;;;;;;25.43;56.14;101699.84;5200090;28;20032;-74
2022/08/06 06:58:17;;;;;;;4.72;0.60;;;;;;;25.98;56.06;101707.03;5202118;28;20033;-75
2022/08/06 07:00:48;;;;;;;2.88;0.40;;;;;;;26.84;53.93;101694.28;5199112;28;20030;-74
2022/08/06 07:03:20;;;;;;;1.55;0.40;;;;;;;27.69;52.79;101698.41;5201494;28;20591;-74
2022/08/06 07:05:52;;;;;;;3.58;0.60;;;;;;;27.36;52.89;101707.63;5202007;28;20501;-75
2022/08/06 07:08:24;;;;;;;1.83;0.40;;;;;;;27.89;52.00;101706.44;5201387;28;20087;-75
2022/08/06 07:10:57;;;;;;;1.77;0.40;;;;;;;29.25;51.05;101706.19;5200522;28;20033;-75
2022/08/06 07:13:29;;;;;;;1.85;0.52;;;;;;;28.47;51.17;101712.78;5201640;28;20025;-75
2022/08/06 07:16:01;;;;;;;3.22;0.40;;;;;;;29.71;49.35;101708.88;5201428;28;20029;-75
2022/08/06 07:18:34;;;;;;;2.97;0.60;;;;;;;29.57;48.93;101712.06;5200352;28;20029;-74
2022/08/06 07:21:05;;;;;;;2.88;0.60;;;;;;;28.73;51.22;101718.28;5201179;28;20025;-75
2022/08/06 07:23:36;;;;;;;1.70;0.40;;;;;;;29.53;50.53;101714.22;5201459;28;20060;-75
2022/08/06 07:26:09;;;;;;;4.50;0.60;;;;;;;27.96;52.55;101723.69;5192166;28;20113;-75
2022/08/06 07:28:42;;;;;;;1.30;0.32;;;;;;;27.18;53.00;101719.94;5200437;28;20150;-72
2022/08/06 07:31:13;;;;;;;2.40;0.50;;;;;;;28.37;52.52;101728.06;5197690;28;20701;-72
2022/08/06 07:33:45;;;;;;;2.45;0.73;;;;;;;29.12;50.39;101720.00;5200737;28;20100;-72
2022/08/06 07:36:18;;;;;;;1.40;0.43;;;;;;;28.93;50.59;101732.63;5200573;28;20017;-72
2022/08/06 07:38:49;;;;;;;2.88;0.50;;;;;;;29.72;49.94;101732.16;5200113;28;20116;-72
2022/08/06 07:41:21;;;;;;;3.80;0.95;;;;;;;28.88;50.91;101740.25;5199503;28;20021;-72
2022/08/06 07:43:53;;;;;;;2.53;0.63;;;;;;;26.70;53.63;101741.19;5198266;28;20849;-72
2022/08/06 07:46:31;;;;;;;2.72;0.70;;;;;;;26.43;54.65;101749.66;5200327;28;20128;-71
2022/08/06 07:49:04;;;;;;;1.83;0.52;;;;;;;26.41;55.62;101745.41;5200315;28;21236;-72
2022/08/06 07:51:39;;;;;;;1.65;0.30;;;;;;;26.10;54.31;101754.25;5200496;28;20061;-72
2022/08/06 07:54:10;;;;;;;3.47;0.52;;;;;;;27.31;52.51;101739.38;5200792;28;20037;-71
2022/08/06 07:56:42;;;;;;;2.42;0.40;;;;;;;28.82;49.29;101741.69;5200051;28;20037;-72
2022/08/06 07:59:13;;;;;;;2.28;0.60;;;;;;;28.21;50.17;101747.41;5230128;28;20029;-72
2022/08/06 08:01:44;;;;;;;1.70;0.40;;;;;;;28.77;49.27;101753.84;5200570;28;20483;-72
2022/08/06 08:07:05;;;;;;;2.63;0.40;;;;;;;27.28;53.29;101753.06;5198695;28;20087;-73
2022/08/06 08:09:37;;;;;;;3.17;0.60;;;;;;;27.27;52.51;101754.06;5199624;28;20044;-74
2022/08/06 08:12:11;;;;;;;3.08;0.43;;;;;;;25.90;54.59;101758.56;5199252;28;20044;-74
2022/08/06 08:14:47;;;;;;;2.72;0.40;;;;;;;25.67;55.61;101759.50;5198965;28;20032;-74
2022/08/06 08:17:18;;;;;;;2.30;0.50;;;;;;;24.67;57.49;101770.91;5199892;28;20027;-74
2022/08/06 08:19:48;;;;;;;1.40;0.40;;;;;;;24.10;58.83;101766.31;5200292;28;20033;-74
2022/08/06 08:22:20;;;;;;;4.00;0.70;;;;;;;22.97;60.36;101769.91;5200417;28;20410;-74
2022/08/06 08:24:50;;;;;;;3.15;0.30;;;;;;;25.70;55.78;101761.09;5198531;28;20037;-74
2022/08/06 08:27:21;;;;;;;1.63;0.38;;;;;;;27.04;53.10;101755.16;5181382;28;20037;-74
2022/08/06 08:29:52;;;;;;;3.10;0.50;;;;;;;26.13;54.24;101762.03;5199926;28;20510;-73
2022/08/06 08:32:22;;;;;;;4.38;0.60;;;;;;;26.82;53.29;101752.59;5200317;28;20029;-74
2022/08/06 08:34:53;;;;;;;1.27;0.40;;;;;;;27.18;53.20;101754.88;5201401;28;20072;-76
2022/08/06 08:37:23;;;;;;;2.83;0.52;;;;;;;27.07;50.98;101762.94;5198376;28;20018;-76
2022/08/06 08:39:54;;;;;;;1.85;0.50;;;;;;;27.64;51.09;101760.63;5199229;28;20033;-76
2022/08/06 08:42:40;;;;;;;3.35;0.40;;;;;;;27.58;51.37;101744.19;5200359;28;20467;-76
2022/08/06 08:45:11;;;;;;;2.78;0.68;;;;;;;29.36;47.65;101747.28;5198732;28;20025;-74
2022/08/06 08:47:49;;;;;;;1.70;0.50;;;;;;;29.79;48.18;101755.69;5198768;28;20060;-75
2022/08/06 08:50:22;;;;;;;2.72;0.50;;;;;;;29.55;48.17;101757.19;5197149;28;20029;-76
2022/08/06 08:53:01;;;;;;;2.58;0.75;;;;;;;29.84;47.72;101755.22;5200341;28;20056;-74
2022/08/06 08:55:32;;;;;;;1.67;0.40;;;;;;;30.77;45.59;101743.16;5199094;28;20033;-75
2022/08/06 08:58:03;;;;;;;3.67;0.40;;;;;;;30.42;44.86;101756.63;5199671;28;20475;-75
2022/08/06 09:00:34;;;;;;;2.88;0.38;;;;;;;29.24;46.96;101764.59;5199084;28;20033;-75
2022/08/06 09:03:05;;;;;;;1.92;0.55;;;;;;;29.08;47.51;101766.22;5199340;28;20037;-75
2022/08/06 09:05:36;;;;;;;1.65;0.30;;;;;;;30.34;46.53;101756.50;5198908;28;20017;-76
2022/08/06 09:08:09;;;;;;;1.67;0.38;;;;;;;30.64;45.61;101756.19;5198612;28;20025;-74
2022/08/06 09:10:41;;;;;;;2.17;0.50;;;;;;;31.01;45.11;101763.94;5198638;28;20461;-75
2022/08/06 09:13:11;;;;;;;2.03;0.38;;;;;;;29.59;47.35;101769.38;5195238;28;20033;-75
2022/08/06 09:15:42;;;;;;;2.47;0.50;;;;;;;27.67;48.82;101772.94;5199666;28;20021;-75
2022/08/06 09:18:12;;;;;;;0.80;0.30;;;;;;;26.23;50.98;101768.38;5197913;28;20399;-74
2022/08/06 09:20:42;;;;;;;1.23;0.35;;;;;;;26.32;51.06;101770.31;5196062;28;20098;-75
2022/08/06 09:23:15;;;;;;;2.33;0.30;;;;;;;25.70;52.02;101769.13;5198207;28;20025;-75
2022/08/06 09:25:48;;;;;;;2.15;0.50;;;;;;;25.21;52.38;101781.94;5197972;28;20025;-74
2022/08/06 09:28:28;;;;;;;2.45;0.40;;;;;;;25.89;52.06;101774.75;5199106;28;20034;-75
2022/08/06 09:30:59;;;;;;;1.58;0.40;;;;;;;25.98;51.08;101771.34;5200000;28;20044;-75
2022/08/06 09:33:32;;;;;;;3.05;0.47;;;;;;;26.35;52.77;101767.38;5200272;28;20112;-75
2022/08/06 09:36:06;;;;;;;1.90;0.50;;;;;;;25.06;53.65;101772.38;5198183;28;20040;-74
2022/08/06 09:38:52;;;;;;;1.52;0.30;;;;;;;24.69;54.53;101778.81;5199066;28;20025;-75
2022/08/06 09:41:25;;;;;;;1.42;0.32;;;;;;;23.38;54.23;101768.81;5196047;28;20060;-75
2022/08/06 09:43:57;;;;;;;1.08;0.35;;;;;;;23.99;53.84;101770.69;5199272;28;20029;-75
2022/08/06 09:46:47;;;;;;;2.55;0.65;;;;;;;24.64;53.98;101764.09;5199664;28;20024;-76
2022/08/06 09:49:19;;;;;;;0.95;0.40;;;;;;;24.63;54.25;101771.28;5194994;28;20645;-76
2022/08/06 09:51:49;;;;;;;1.77;0.50;;;;;;;24.06;55.81;101767.47;5203557;28;20029;-75
2022/08/06 09:54:20;;;;;;;2.45;0.30;;;;;;;24.22;55.53;101770.75;5203056;28;20147;-76
2022/08/06 09:56:57;;;;;;;2.88;0.50;;;;;;;24.62;54.42;101776.72;5202973;28;20723;-75
2022/08/06 09:59:28;;;;;;;4.55;0.40;;;;;;;24.23;54.05;101764.44;5200406;28;20021;-75
2022/08/06 10:01:59;;;;;;;2.58;0.30;;;;;;;24.58;53.48;101769.91;5203232;28;20036;-76
2022/08/06 10:04:29;;;;;;;3.72;0.60;;;;;;;23.92;54.86;101773.00;5198487;28;20882;-75
2022/08/06 10:07:01;;;;;;;1.52;0.30;;;;;;;23.97;55.57;101773.50;5200014;28;20017;-76
2022/08/06 10:09:32;;;;;;;1.90;0.60;;;;;;;24.52;53.12;101765.84;5199694;28;20419;-75
2022/08/06 10:12:17;;;;;;;1.35;0.30;;;;;;;24.54;53.43;101768.44;5200162;28;20627;-76
2022/08/06 10:14:48;;;;;;;1.20;0.30;;;;;;;24.40;53.50;101769.41;5199238;28;20060;-76
2022/08/06 10:17:20;;;;;;;2.33;0.40;;;;;;;23.60;54.03;101770.84;5200626;28;20029;-75
2022/08/06 10:20:13;;;;;;;0.60;0.28;;;;;;;23.49;55.33;101768.94;5200477;28;20037;-75
2022/08/06 10:22:54;;;;;;;1.65;0.38;;;;;;;22.79;56.03;101760.50;5200074;28;20040;-76
2022/08/06 10:25:26;;;;;;;3.55;0.60;;;;;;;22.53;57.68;101771.16;5200774;28;20289;-75
2022/08/06 10:27:58;;;;;;;1.90;0.40;;;;;;;23.23;56.07;101761.88;5200944;28;20598;-76
2022/08/06 10:30:29;;;;;;;0.90;0.22;;;;;;;23.25;56.07;101765.31;5198940;28;20548;-75
2022/08/06 10:33:05;;;;;;;1.73;0.30;;;;;;;23.49;56.31;101760.06;5201873;28;20018;-75
2022/08/06 10:35:38;;;;;;;2.17;0.60;;;;;;;23.05;56.30;101749.75;5200913;28;20558;-75
2022/08/06 10:38:14;;;;;;;1.73;0.35;;;;;;;23.84;55.67;101759.31;5201072;28;20056;-75
2022/08/06 10:40:51;;;;;;;5.03;0.57;;;;;;;23.85;56.49;101760.19;5200355;28;20037;-76
2022/08/06 10:43:22;;;;;;;12.23;1.08;;;;;;;23.26;56.79;101763.47;5200970;28;20459;-74
2022/08/06 10:45:53;;;;;;;3.97;0.50;;;;;;;22.80;56.57;101763.06;5199796;28;20029;-75
2022/08/06 10:48:24;;;;;;;3.55;0.30;;;;;;;22.25;57.60;101763.25;5199681;28;20127;-76
2022/08/06 10:50:54;;;;;;;4.10;0.70;;;;;;;22.66;57.09;101769.41;5199611;28;20056;-75
2022/08/06 10:53:25;;;;;;;2.67;0.30;;;;;;;23.00;55.09;101765.22;5200369;28;20034;-75
2022/08/06 10:55:59;;;;;;;16.80;1.10;;;;;;;23.07;55.33;101755.88;5200872;28;20029;-75
2022/08/06 10:58:32;;;;;;;1.15;0.32;;;;;;;23.46;55.20;101755.81;5198508;28;20029;-75
2022/08/06 11:01:35;;;;;;;1.20;0.40;;;;;;;23.50;54.93;101748.44;5200251;28;20095;-75
2022/08/06 11:04:37;;;;;;;0.88;0.28;;;;;;;23.73;54.02;101751.16;5200751;28;20028;-75
2022/08/06 11:07:16;;;;;;;0.88;0.20;;;;;;;23.18;55.02;101750.66;5200261;28;20501;-75
2022/08/06 11:10:11;;;;;;;2.67;0.40;;;;;;;22.83;54.55;101748.69;5199809;28;20041;-75
2022/08/06 11:12:52;;;;;;;1.83;0.50;;;;;;;22.78;53.83;101753.44;5200513;28;20037;-75
2022/08/06 11:15:23;;;;;;;1.05;0.20;;;;;;;23.10;53.30;101739.66;5199510;28;20032;-74
2022/08/06 11:18:02;;;;;;;1.13;0.30;;;;;;;23.08;52.21;101746.91;5198649;28;20044;-74
2022/08/06 11:20:32;;;;;;;1.25;0.20;;;;;;;23.37;53.78;101742.25;5198455;28;20073;-75
2022/08/06 11:23:03;;;;;;;0.85;0.20;;;;;;;23.27;52.47;101738.50;5199871;28;20063;-75
2022/08/06 11:25:44;;;;;;;0.70;0.20;;;;;;;23.62;53.95;101734.22;5199544;28;20101;-75
2022/08/06 11:28:21;;;;;;;1.80;0.45;;;;;;;23.16;54.40;101736.59;5197881;28;20646;-75
2022/08/06 11:30:53;;;;;;;1.10;0.20;;;;;;;22.62;54.24;101739.44;5197619;28;20066;-76
2022/08/06 11:33:32;;;;;;;3.95;0.30;;;;;;;22.27;55.88;101745.38;5200537;28;20033;-75
2022/08/06 11:36:23;;;;;;;0.70;0.13;;;;;;;22.10;56.26;101745.59;5199308;28;20045;-75
2022/08/06 11:38:53;;;;;;;1.13;0.20;;;;;;;22.56;53.48;101739.84;5198393;28;20029;-75
2022/08/06 11:41:32;;;;;;;1.55;0.30;;;;;;;22.79;52.65;101731.16;5199953;28;20422;-74
2022/08/06 11:44:08;;;;;;;1.65;0.22;;;;;;;22.90;51.96;101737.50;5200733;28;20040;-75
2022/08/06 11:46:40;;;;;;;0.82;0.30;;;;;;;22.95;52.39;101724.69;5199873;28;20037;-75
2022/08/06 11:49:15;;;;;;;3.05;0.20;;;;;;;22.55;53.31;101735.47;5194197;28;20204;-75
2022/08/06 11:51:57;;;;;;;1.80;0.40;;;;;;;22.59;54.03;101755.63;5196020;28;20076;-76
2022/08/06 11:55:00;;;;;;;1.23;0.30;;;;;;;22.68;53.91;101741.72;5198351;28;20018;-76
2022/08/06 11:57:31;;;;;;;2.13;0.32;;;;;;;22.37;54.34;101749.13;5197368;28;20095;-76
2022/08/06 12:00:08;;;;;;;1.08;0.40;;;;;;;22.37;54.16;101743.78;5199974;28;20391;-75